McGehee, Arkansas
Current Conditions -  °F | °C
As of 4:53 PM on Saturday 25 Oct 2014 (Local Time) from KLLQ Reporting Station
Clear Clear  
Wind Chill: 27°   Ceiling: Unl
Heat Index: 28°   Visibility: 10mi
Dew Point: 18°   Wind: 5mph
Humidity: 56%   Direction: 270°W
Pressure: 30.05"   Gusts: NA
Location:  33.63°N, 91.39°W
Report Text: KLLQ 252153Z AUTO 27004KT 10SM CLR 27/18 A3005 RMK AO2 SLP172 T02720178
Loading
Personal Weather Stations






























Interactive Weather Map
Tropical Storm Tracking
New forecast layout! Learn more

10-Day Weather Forecast

Advertisements
Track Severe Weather on mobile